Time;durP1;ratioP1;P1;durP2;ratioP2;P2;SDS_P1;SDS_P2;PMS_P1;PMS_P2;Temp;Humidity;BMP_temperature;BMP_pressure;BME280_temperature;BME280_humidity;BME280_pressure;Samples;Min_cycle;Max_cycle;Signal;HPM_P1;HPM_P2
2023/03/06 00:01:47;;;;;;;14.47;6.57;;;;;;;;;;5023822;28;20498;-52
2023/03/06 00:04:32;;;;;;;13.33;7.13;;;;;;;;;;5016945;28;20474;-53
2023/03/06 00:06:59;;;;;;;11.60;7.40;;;;;;;;;;5012437;28;20439;-53
2023/03/06 00:09:25;;;;;;;12.90;7.70;;;;;;;;;;5027821;28;20547;-54
2023/03/06 00:11:51;;;;;;;8.97;6.23;;;;;;;;;;5006692;28;20438;-54
2023/03/06 00:14:17;;;;;;;12.80;7.23;;;;;;;;;;5026203;28;20431;-53
2023/03/06 00:16:43;;;;;;;11.47;6.43;;;;;;;;;;5010344;28;20454;-52
2023/03/06 00:19:09;;;;;;;9.90;7.00;;;;;;;;;;5029387;28;22613;-53
2023/03/06 00:21:35;;;;;;;9.93;7.23;;;;;;;;;;5024198;28;20540;-54
2023/03/06 00:24:01;;;;;;;9.63;6.87;;;;;;;;;;5033334;28;20472;-53
2023/03/06 00:26:27;;;;;;;12.07;6.10;;;;;;;;;;5028673;28;20454;-54
2023/03/06 00:28:53;;;;;;;11.07;7.00;;;;;;;;;;5030632;28;20431;-55
2023/03/06 00:31:19;;;;;;;15.40;7.90;;;;;;;;;;5011859;28;20480;-54
2023/03/06 00:33:45;;;;;;;11.93;8.30;;;;;;;;;;5030732;28;21052;-54
2023/03/06 00:36:11;;;;;;;15.40;8.77;;;;;;;;;;4970842;28;20447;-52
2023/03/06 00:38:37;;;;;;;14.80;7.93;;;;;;;;;;5026345;28;20448;-54
2023/03/06 00:41:10;;;;;;;11.03;7.23;;;;;;;;;;5022954;28;20446;-55
2023/03/06 00:43:35;;;;;;;11.67;6.80;;;;;;;;;;5028069;28;22826;-54
2023/03/06 00:46:02;;;;;;;12.23;7.10;;;;;;;;;;5015096;28;20485;-53
2023/03/06 00:48:28;;;;;;;9.07;6.20;;;;;;;;;;5018983;28;20464;-53
2023/03/06 00:50:54;;;;;;;11.10;7.37;;;;;;;;;;5032527;28;20447;-53
2023/03/06 00:53:20;;;;;;;12.73;7.63;;;;;;;;;;5019864;28;20511;-52
2023/03/06 00:55:46;;;;;;;12.10;7.53;;;;;;;;;;5030667;28;20445;-52
2023/03/06 00:58:12;;;;;;;20.77;8.60;;;;;;;;;;5017552;28;20450;-52
2023/03/06 01:00:38;;;;;;;15.97;7.90;;;;;;;;;;5031377;28;20442;-52
2023/03/06 01:03:04;;;;;;;10.13;7.13;;;;;;;;;;5020154;28;20442;-52
2023/03/06 01:05:30;;;;;;;11.00;7.47;;;;;;;;;;5010535;28;20489;-53
2023/03/06 01:07:56;;;;;;;11.60;7.20;;;;;;;;;;5042747;28;20442;-51
2023/03/06 01:10:22;;;;;;;14.17;7.40;;;;;;;;;;4993091;28;20685;-53
2023/03/06 01:12:48;;;;;;;10.53;7.60;;;;;;;;;;5030545;28;20528;-53
2023/03/06 01:15:14;;;;;;;13.03;7.30;;;;;;;;;;4997764;28;20509;-52
2023/03/06 01:17:40;;;;;;;11.57;7.30;;;;;;;;;;5030592;28;20439;-54
2023/03/06 01:20:07;;;;;;;15.43;6.87;;;;;;;;;;5006885;28;20454;-51
2023/03/06 01:22:33;;;;;;;11.23;5.37;;;;;;;;;;5027842;28;21343;-53
2023/03/06 01:24:59;;;;;;;14.77;6.97;;;;;;;;;;5012123;28;21310;-52
2023/03/06 01:27:25;;;;;;;10.90;6.70;;;;;;;;;;5026299;28;20985;-53
2023/03/06 01:29:51;;;;;;;13.40;6.83;;;;;;;;;;5036023;28;20430;-56
2023/03/06 01:32:17;;;;;;;16.10;7.07;;;;;;;;;;5030378;28;20466;-53
2023/03/06 01:34:43;;;;;;;11.23;7.70;;;;;;;;;;5029564;28;20469;-53
2023/03/06 01:37:09;;;;;;;9.90;6.93;;;;;;;;;;5004280;28;20454;-54
2023/03/06 01:39:35;;;;;;;10.70;6.60;;;;;;;;;;5036790;28;20529;-53
2023/03/06 01:42:01;;;;;;;11.33;6.90;;;;;;;;;;4990303;28;20507;-53
2023/03/06 01:44:27;;;;;;;10.83;7.27;;;;;;;;;;5030452;28;20498;-55
2023/03/06 01:46:53;;;;;;;14.53;7.90;;;;;;;;;;5010258;28;22095;-54
2023/03/06 01:49:19;;;;;;;14.30;7.00;;;;;;;;;;5035477;28;20442;-54
2023/03/06 01:51:51;;;;;;;12.93;6.03;;;;;;;;;;5010971;28;20442;-53
2023/03/06 01:54:19;;;;;;;8.03;5.50;;;;;;;;;;5002680;28;20461;-53
2023/03/06 01:56:46;;;;;;;9.10;6.53;;;;;;;;;;5037434;28;20427;-52
2023/03/06 01:59:12;;;;;;;8.63;6.23;;;;;;;;;;5007186;28;20449;-51
2023/03/06 02:01:38;;;;;;;10.70;6.60;;;;;;;;;;5031880;28;20523;-50
2023/03/06 02:04:04;;;;;;;13.13;6.37;;;;;;;;;;5037222;28;20488;-52
2023/03/06 02:06:30;;;;;;;9.13;6.70;;;;;;;;;;5029469;28;20442;-51
2023/03/06 02:08:56;;;;;;;13.93;7.80;;;;;;;;;;5011995;28;20447;-52
2023/03/06 02:11:23;;;;;;;14.83;7.57;;;;;;;;;;5043383;28;20572;-55
2023/03/06 02:13:50;;;;;;;14.40;7.13;;;;;;;;;;4994477;28;20761;-51
2023/03/06 02:16:16;;;;;;;8.87;5.90;;;;;;;;;;5018278;28;20445;-55
2023/03/06 02:18:42;;;;;;;8.63;5.70;;;;;;;;;;5014300;28;23132;-52
2023/03/06 02:21:09;;;;;;;14.57;6.83;;;;;;;;;;5003337;28;20434;-54
2023/03/06 02:23:57;;;;;;;12.17;7.00;;;;;;;;;;5014309;28;20479;-54
2023/03/06 02:26:23;;;;;;;12.50;7.17;;;;;;;;;;5028331;28;20442;-54
2023/03/06 02:28:49;;;;;;;8.37;6.87;;;;;;;;;;5050963;28;20429;-54
2023/03/06 02:31:20;;;;;;;9.87;6.97;;;;;;;;;;5036843;28;20451;-55
2023/03/06 02:33:46;;;;;;;8.53;6.80;;;;;;;;;;5014881;28;20442;-52
2023/03/06 02:36:13;;;;;;;8.43;6.43;;;;;;;;;;5031963;28;20466;-52
2023/03/06 02:38:46;;;;;;;11.90;6.53;;;;;;;;;;5020809;28;21148;-53
2023/03/06 02:41:12;;;;;;;11.13;5.57;;;;;;;;;;5027212;28;21241;-53
2023/03/06 02:43:58;;;;;;;13.17;6.67;;;;;;;;;;5005006;28;20439;-52
2023/03/06 02:46:24;;;;;;;10.60;7.03;;;;;;;;;;5017203;28;20191;-53
2023/03/06 02:48:50;;;;;;;12.07;7.63;;;;;;;;;;5031385;28;20440;-53
2023/03/06 02:51:16;;;;;;;11.13;5.83;;;;;;;;;;5011519;28;20472;-53
2023/03/06 02:53:42;;;;;;;8.77;5.30;;;;;;;;;;5022210;28;20287;-53
2023/03/06 02:56:08;;;;;;;7.67;5.90;;;;;;;;;;5015191;28;20541;-52
2023/03/06 02:58:34;;;;;;;10.53;7.10;;;;;;;;;;5028303;28;20469;-52
2023/03/06 03:01:00;;;;;;;11.17;6.60;;;;;;;;;;5026705;28;20447;-53
2023/03/06 03:03:26;;;;;;;12.50;7.10;;;;;;;;;;5035954;28;20846;-53
2023/03/06 03:05:52;;;;;;;14.27;7.17;;;;;;;;;;5005402;28;20496;-53
2023/03/06 03:08:18;;;;;;;10.43;6.80;;;;;;;;;;5042346;28;20434;-52
2023/03/06 03:10:44;;;;;;;10.97;6.60;;;;;;;;;;5013122;28;20450;-54
2023/03/06 03:13:10;;;;;;;13.70;6.30;;;;;;;;;;5037723;28;20482;-52
2023/03/06 03:15:36;;;;;;;12.33;6.77;;;;;;;;;;4983728;28;21176;-52
2023/03/06 03:18:02;;;;;;;11.23;6.53;;;;;;;;;;5015889;28;20442;-54
2023/03/06 03:20:28;;;;;;;9.00;6.43;;;;;;;;;;5022263;28;20704;-51
2023/03/06 03:22:54;;;;;;;10.60;6.97;;;;;;;;;;5033676;28;20446;-53
2023/03/06 03:25:22;;;;;;;8.60;6.30;;;;;;;;;;5012208;28;21085;-53
2023/03/06 03:27:48;;;;;;;11.80;6.80;;;;;;;;;;5029209;28;20430;-53
2023/03/06 03:30:15;;;;;;;10.33;7.00;;;;;;;;;;5009751;28;21052;-54
2023/03/06 03:32:41;;;;;;;12.60;6.63;;;;;;;;;;5033424;28;20461;-52
2023/03/06 03:35:08;;;;;;;10.53;7.50;;;;;;;;;;5010118;28;20739;-54
2023/03/06 03:37:34;;;;;;;10.57;6.43;;;;;;;;;;5031861;28;20959;-56
2023/03/06 03:40:00;;;;;;;9.07;7.10;;;;;;;;;;5029325;28;20439;-55
2023/03/06 03:42:26;;;;;;;12.23;7.23;;;;;;;;;;5034665;28;20199;-55
2023/03/06 03:44:52;;;;;;;9.93;7.77;;;;;;;;;;5019596;28;20478;-54
2023/03/06 03:47:18;;;;;;;13.83;6.57;;;;;;;;;;5039963;28;20780;-55
2023/03/06 03:49:44;;;;;;;10.00;7.17;;;;;;;;;;4988542;28;20443;-52
2023/03/06 03:52:10;;;;;;;11.60;8.27;;;;;;;;;;5037510;28;21212;-53
2023/03/06 03:54:35;;;;;;;12.00;5.90;;;;;;;;;;5029745;28;20442;-54
2023/03/06 03:57:01;;;;;;;13.27;8.23;;;;;;;;;;5023675;28;20184;-53
2023/03/06 03:59:29;;;;;;;9.37;6.07;;;;;;;;;;4997918;28;20470;-53
2023/03/06 04:01:55;;;;;;;10.27;6.40;;;;;;;;;;5037853;28;20434;-51
2023/03/06 04:04:21;;;;;;;10.37;5.93;;;;;;;;;;5034994;28;20547;-52
2023/03/06 04:06:47;;;;;;;10.53;6.23;;;;;;;;;;5036767;28;20442;-52
2023/03/06 04:09:13;;;;;;;11.33;8.30;;;;;;;;;;5010037;28;20430;-53
2023/03/06 04:11:39;;;;;;;9.67;7.00;;;;;;;;;;5035340;28;20502;-51
2023/03/06 04:14:07;;;;;;;10.57;6.57;;;;;;;;;;5015926;28;20423;-52
2023/03/06 04:16:33;;;;;;;14.17;6.93;;;;;;;;;;5032934;28;20853;-53
2023/03/06 04:18:59;;;;;;;13.90;8.33;;;;;;;;;;5003880;28;20426;-54
2023/03/06 04:21:25;;;;;;;11.40;8.20;;;;;;;;;;5034752;28;20445;-54
2023/03/06 04:23:51;;;;;;;8.03;5.60;;;;;;;;;;4991363;28;21180;-53
2023/03/06 04:26:17;;;;;;;8.70;6.20;;;;;;;;;;5038685;28;20443;-52
2023/03/06 04:28:43;;;;;;;12.33;6.27;;;;;;;;;;5041142;28;20438;-52
2023/03/06 04:31:10;;;;;;;10.07;6.20;;;;;;;;;;5045784;28;20491;-54
2023/03/06 04:33:36;;;;;;;8.50;6.20;;;;;;;;;;5000307;28;20446;-53
2023/03/06 04:36:02;;;;;;;12.30;7.20;;;;;;;;;;5038497;28;20441;-54
2023/03/06 04:38:27;;;;;;;9.17;6.20;;;;;;;;;;5008779;28;20477;-51
2023/03/06 04:40:53;;;;;;;14.17;7.07;;;;;;;;;;5036819;28;20187;-54
2023/03/06 04:43:20;;;;;;;8.73;5.37;;;;;;;;;;5034676;28;20430;-55
2023/03/06 04:45:46;;;;;;;11.03;5.83;;;;;;;;;;5037051;28;21036;-53
2023/03/06 04:48:13;;;;;;;13.00;7.03;;;;;;;;;;5014442;28;20446;-54
2023/03/06 04:50:38;;;;;;;9.03;5.87;;;;;;;;;;5028815;28;20438;-53
2023/03/06 04:53:24;;;;;;;7.60;5.10;;;;;;;;;;5019568;28;20434;-54
2023/03/06 04:55:52;;;;;;;10.53;6.23;;;;;;;;;;5018917;28;21514;-52
2023/03/06 04:58:19;;;;;;;10.43;6.73;;;;;;;;;;5035329;28;20449;-53
2023/03/06 05:00:45;;;;;;;10.37;6.50;;;;;;;;;;5024622;28;20440;-54
2023/03/06 05:03:13;;;;;;;10.70;5.80;;;;;;;;;;5028011;28;20446;-54
2023/03/06 05:05:38;;;;;;;8.43;6.20;;;;;;;;;;5004233;28;20489;-52
2023/03/06 05:08:05;;;;;;;10.33;5.97;;;;;;;;;;5036761;28;20438;-54
2023/03/06 05:10:31;;;;;;;11.43;6.20;;;;;;;;;;5012330;28;20219;-55
2023/03/06 05:12:57;;;;;;;7.87;5.83;;;;;;;;;;5040012;28;20485;-55
2023/03/06 05:15:23;;;;;;;7.87;6.53;;;;;;;;;;5030460;28;20454;-52
2023/03/06 05:17:49;;;;;;;9.83;6.73;;;;;;;;;;5032463;28;20446;-55
2023/03/06 05:20:15;;;;;;;11.43;6.70;;;;;;;;;;5007205;28;20442;-52
2023/03/06 05:22:41;;;;;;;10.30;7.00;;;;;;;;;;5023621;28;20455;-51
2023/03/06 05:25:07;;;;;;;9.90;5.50;;;;;;;;;;4989756;28;20489;-53
2023/03/06 05:27:33;;;;;;;11.33;6.50;;;;;;;;;;5035481;28;20449;-49
2023/03/06 05:29:59;;;;;;;6.37;5.50;;;;;;;;;;5002004;28;20473;-54
2023/03/06 05:32:25;;;;;;;8.90;6.20;;;;;;;;;;5029624;28;20431;-53
2023/03/06 05:34:51;;;;;;;7.17;5.13;;;;;;;;;;4995805;28;21793;-54
2023/03/06 05:37:17;;;;;;;9.40;5.40;;;;;;;;;;5037705;28;20439;-52
2023/03/06 05:39:43;;;;;;;13.30;7.43;;;;;;;;;;5032352;28;21247;-51
2023/03/06 05:42:09;;;;;;;10.23;6.03;;;;;;;;;;5034044;28;20191;-52
2023/03/06 05:44:35;;;;;;;10.37;7.33;;;;;;;;;;5041600;28;20467;-51
2023/03/06 05:47:01;;;;;;;10.27;5.67;;;;;;;;;;5041233;28;20845;-53
2023/03/06 05:49:30;;;;;;;10.93;6.10;;;;;;;;;;5034838;28;20928;-51
2023/03/06 05:51:56;;;;;;;10.07;6.20;;;;;;;;;;5009617;28;20541;-52
2023/03/06 05:54:23;;;;;;;9.90;5.27;;;;;;;;;;5031653;28;20526;-51
2023/03/06 05:57:11;;;;;;;8.80;6.30;;;;;;;;;;5013435;28;20454;-52
2023/03/06 05:59:37;;;;;;;7.83;5.47;;;;;;;;;;5025829;28;20863;-51
2023/03/06 06:02:04;;;;;;;9.80;5.83;;;;;;;;;;5029342;28;20450;-51
2023/03/06 06:04:30;;;;;;;12.60;6.03;;;;;;;;;;5006720;28;20966;-53
2023/03/06 06:06:56;;;;;;;10.73;7.13;;;;;;;;;;5020032;28;20449;-53
2023/03/06 06:09:22;;;;;;;11.90;5.00;;;;;;;;;;4988885;28;22311;-52
2023/03/06 06:11:58;;;;;;;11.60;5.83;;;;;;;;;;5030932;28;20453;-54
2023/03/06 06:14:24;;;;;;;8.17;4.90;;;;;;;;;;5037251;28;20988;-52
2023/03/06 06:16:50;;;;;;;11.77;6.93;;;;;;;;;;5035483;28;20445;-52
2023/03/06 06:19:19;;;;;;;10.13;7.07;;;;;;;;;;5006542;28;20538;-53
2023/03/06 06:21:46;;;;;;;11.87;5.87;;;;;;;;;;5044325;28;20433;-52
2023/03/06 06:24:12;;;;;;;11.30;6.17;;;;;;;;;;5014700;28;20579;-52
2023/03/06 06:26:38;;;;;;;9.10;6.83;;;;;;;;;;5039169;28;20434;-52
2023/03/06 06:29:14;;;;;;;10.97;6.87;;;;;;;;;;5015379;28;21116;-52
2023/03/06 06:31:41;;;;;;;12.50;6.27;;;;;;;;;;5018711;28;20462;-52
2023/03/06 06:34:07;;;;;;;10.10;6.83;;;;;;;;;;5040039;28;20469;-52
2023/03/06 06:36:33;;;;;;;14.50;7.77;;;;;;;;;;5041793;28;20434;-52
2023/03/06 06:38:59;;;;;;;17.37;7.13;;;;;;;;;;5016759;28;21445;-53
2023/03/06 06:41:25;;;;;;;11.60;6.63;;;;;;;;;;5032131;28;20999;-53
2023/03/06 06:43:51;;;;;;;11.77;6.40;;;;;;;;;;5035828;28;20548;-55
2023/03/06 06:46:17;;;;;;;6.57;5.20;;;;;;;;;;5009118;28;20438;-52
2023/03/06 06:48:43;;;;;;;9.97;6.30;;;;;;;;;;5047374;28;20449;-50
2023/03/06 06:51:09;;;;;;;12.33;6.70;;;;;;;;;;5016187;28;20516;-48
2023/03/06 06:53:35;;;;;;;9.87;6.00;;;;;;;;;;5036795;28;20427;-51
2023/03/06 06:56:01;;;;;;;9.63;5.90;;;;;;;;;;5021716;28;20487;-52
2023/03/06 06:58:27;;;;;;;13.23;7.30;;;;;;;;;;5040588;28;20469;-53
2023/03/06 07:00:55;;;;;;;11.60;6.97;;;;;;;;;;5017564;28;20967;-52
2023/03/06 07:03:22;;;;;;;10.30;6.60;;;;;;;;;;5037851;28;20442;-53
2023/03/06 07:05:55;;;;;;;10.20;5.70;;;;;;;;;;5011531;28;21125;-52
2023/03/06 07:08:21;;;;;;;8.83;6.37;;;;;;;;;;5038606;28;20487;-53
2023/03/06 07:10:47;;;;;;;16.57;7.13;;;;;;;;;;5013295;28;20450;-51
2023/03/06 07:13:13;;;;;;;8.30;6.00;;;;;;;;;;5036515;28;20459;-51
2023/03/06 07:15:39;;;;;;;11.07;6.63;;;;;;;;;;5039490;28;20473;-53
2023/03/06 07:18:05;;;;;;;12.80;6.27;;;;;;;;;;5009617;28;20438;-52
2023/03/06 07:20:31;;;;;;;14.33;6.40;;;;;;;;;;5010798;28;20450;-52
2023/03/06 07:22:57;;;;;;;12.87;6.27;;;;;;;;;;5037023;28;20253;-55
2023/03/06 07:25:23;;;;;;;10.50;5.93;;;;;;;;;;5007983;28;20814;-53
2023/03/06 07:27:53;;;;;;;13.40;7.60;;;;;;;;;;5041170;28;20445;-55
2023/03/06 07:30:19;;;;;;;10.33;6.67;;;;;;;;;;5015531;28;20524;-52
2023/03/06 07:32:45;;;;;;;13.27;6.27;;;;;;;;;;5037843;28;20502;-54
2023/03/06 07:35:13;;;;;;;9.13;5.53;;;;;;;;;;4998499;28;20679;-53
2023/03/06 07:37:39;;;;;;;9.37;6.10;;;;;;;;;;5040460;28;20492;-53
2023/03/06 07:40:06;;;;;;;11.87;6.90;;;;;;;;;;5027768;28;20442;-53
2023/03/06 07:42:32;;;;;;;10.00;6.07;;;;;;;;;;5023419;28;20506;-53
2023/03/06 07:44:58;;;;;;;9.97;5.90;;;;;;;;;;5033641;28;20915;-52
2023/03/06 07:47:24;;;;;;;11.27;6.47;;;;;;;;;;5017337;28;20438;-54
2023/03/06 07:49:54;;;;;;;13.70;7.07;;;;;;;;;;5038516;28;20449;-52
2023/03/06 07:52:19;;;;;;;12.60;6.00;;;;;;;;;;5007408;28;20453;-52
2023/03/06 07:54:46;;;;;;;11.60;7.20;;;;;;;;;;5041404;28;20442;-51
2023/03/06 07:57:12;;;;;;;8.13;6.17;;;;;;;;;;5030874;28;20433;-52
2023/03/06 07:59:38;;;;;;;11.90;6.07;;;;;;;;;;5041094;28;22205;-51
2023/03/06 08:02:04;;;;;;;8.37;5.60;;;;;;;;;;5020279;28;20810;-53
2023/03/06 08:04:30;;;;;;;14.10;7.00;;;;;;;;;;5041167;28;20221;-52
2023/03/06 08:06:58;;;;;;;8.47;5.27;;;;;;;;;;5004193;28;20433;-54
2023/03/06 08:09:24;;;;;;;10.63;5.93;;;;;;;;;;5041374;28;20426;-50
2023/03/06 08:11:50;;;;;;;9.13;6.63;;;;;;;;;;4998041;28;20470;-53
2023/03/06 08:14:16;;;;;;;15.60;6.00;;;;;;;;;;5036408;28;20422;-54
2023/03/06 08:16:42;;;;;;;9.20;6.20;;;;;;;;;;5037760;28;20454;-53
2023/03/06 08:19:08;;;;;;;11.13;6.30;;;;;;;;;;5041861;28;20491;-52
2023/03/06 08:21:34;;;;;;;12.23;6.30;;;;;;;;;;5012955;28;21399;-52
2023/03/06 08:24:00;;;;;;;11.70;5.70;;;;;;;;;;5040994;28;20830;-51
2023/03/06 08:26:27;;;;;;;8.50;5.33;;;;;;;;;;5026855;28;20453;-52
2023/03/06 08:28:53;;;;;;;8.80;5.40;;;;;;;;;;5043666;28;20935;-52
2023/03/06 08:31:22;;;;;;;9.20;5.47;;;;;;;;;;5021167;28;20788;-54
2023/03/06 08:33:48;;;;;;;10.57;5.57;;;;;;;;;;5029956;28;20512;-53
2023/03/06 08:36:15;;;;;;;8.10;5.47;;;;;;;;;;4985528;28;20430;-51
2023/03/06 08:38:40;;;;;;;8.80;5.43;;;;;;;;;;5034319;28;20454;-54
2023/03/06 08:41:06;;;;;;;7.77;5.10;;;;;;;;;;5043467;28;20431;-52
2023/03/06 08:43:34;;;;;;;8.20;4.40;;;;;;;;;;5040791;28;20436;-53
2023/03/06 08:46:00;;;;;;;7.50;4.90;;;;;;;;;;5027111;28;20477;-54
2023/03/06 08:48:26;;;;;;;10.50;5.50;;;;;;;;;;5029705;28;20422;-53
2023/03/06 08:50:52;;;;;;;7.70;5.30;;;;;;;;;;5039900;28;20438;-52
2023/03/06 08:53:18;;;;;;;8.43;5.00;;;;;;;;;;5007088;28;20453;-52
2023/03/06 08:55:44;;;;;;;7.43;5.10;;;;;;;;;;5042436;28;20545;-52
2023/03/06 08:58:10;;;;;;;7.47;4.97;;;;;;;;;;5016777;28;20446;-52
2023/03/06 09:00:36;;;;;;;7.03;5.50;;;;;;;;;;5029942;28;20564;-53
2023/03/06 09:03:02;;;;;;;6.77;4.60;;;;;;;;;;5022521;28;20789;-52
2023/03/06 09:05:28;;;;;;;6.87;5.00;;;;;;;;;;5045856;28;20485;-53
2023/03/06 09:07:54;;;;;;;8.67;4.37;;;;;;;;;;4997937;28;20434;-50
2023/03/06 09:10:21;;;;;;;7.57;6.10;;;;;;;;;;5040340;28;20450;-55
2023/03/06 09:12:47;;;;;;;11.53;5.23;;;;;;;;;;5018443;28;20524;-53
2023/03/06 09:15:13;;;;;;;9.03;5.37;;;;;;;;;;5039605;28;20955;-60
2023/03/06 09:17:39;;;;;;;9.50;5.37;;;;;;;;;;5043517;28;20453;-53
2023/03/06 09:20:05;;;;;;;9.07;6.00;;;;;;;;;;5041118;28;20438;-53
2023/03/06 09:22:31;;;;;;;9.17;5.23;;;;;;;;;;5027418;28;20470;-53
2023/03/06 09:24:57;;;;;;;10.87;5.13;;;;;;;;;;5043130;28;20477;-51
2023/03/06 09:27:23;;;;;;;7.67;5.17;;;;;;;;;;5011308;28;20457;-53
2023/03/06 09:29:49;;;;;;;7.00;4.63;;;;;;;;;;5035331;28;20862;-53
2023/03/06 09:32:15;;;;;;;7.27;4.40;;;;;;;;;;5019607;28;20588;-58
2023/03/06 09:34:41;;;;;;;8.43;5.20;;;;;;;;;;5039472;28;20271;-53
2023/03/06 09:37:07;;;;;;;5.73;4.63;;;;;;;;;;5040215;28;20446;-52
2023/03/06 09:39:33;;;;;;;6.97;4.63;;;;;;;;;;5039662;28;20434;-50
2023/03/06 09:41:59;;;;;;;8.30;5.50;;;;;;;;;;4984934;28;20928;-53
2023/03/06 09:44:26;;;;;;;7.07;4.30;;;;;;;;;;5024443;28;20512;-52
2023/03/06 09:47:11;;;;;;;5.77;4.90;;;;;;;;;;5032485;28;22646;-54
2023/03/06 09:49:43;;;;;;;9.43;5.07;;;;;;;;;;5037741;28;20450;-52
2023/03/06 09:52:22;;;;;;;6.33;4.63;;;;;;;;;;5036831;28;20525;-51
2023/03/06 09:54:48;;;;;;;11.27;5.30;;;;;;;;;;5042897;28;20446;-53
2023/03/06 09:57:25;;;;;;;9.77;5.97;;;;;;;;;;5014620;28;20453;-54
2023/03/06 09:59:53;;;;;;;10.17;5.60;;;;;;;;;;5035045;28;20259;-53
2023/03/06 10:02:27;;;;;;;8.40;6.03;;;;;;;;;;5026862;28;20482;-50
2023/03/06 10:05:00;;;;;;;7.67;5.30;;;;;;;;;;5034457;28;20568;-51
2023/03/06 10:07:45;;;;;;;9.10;6.10;;;;;;;;;;5014943;28;20802;-52
2023/03/06 10:10:18;;;;;;;9.80;4.27;;;;;;;;;;5003812;28;21036;-52
2023/03/06 10:12:47;;;;;;;6.60;5.77;;;;;;;;;;5042767;28;20435;-54
2023/03/06 10:15:23;;;;;;;7.87;5.43;;;;;;;;;;4988311;28;20438;-54
2023/03/06 10:17:50;;;;;;;6.50;4.10;;;;;;;;;;4995598;28;20515;-54
2023/03/06 10:20:17;;;;;;;6.27;5.03;;;;;;;;;;4984339;28;20460;-53
2023/03/06 10:22:55;;;;;;;9.00;4.63;;;;;;;;;;5039344;28;20449;-53
2023/03/06 10:25:31;;;;;;;6.27;4.80;;;;;;;;;;5036095;28;20466;-52
2023/03/06 10:28:01;;;;;;;7.00;5.00;;;;;;;;;;5042799;28;20515;-54
2023/03/06 10:30:27;;;;;;;6.60;4.70;;;;;;;;;;5021349;28;20451;-52
2023/03/06 10:32:54;;;;;;;6.70;4.77;;;;;;;;;;5039285;28;20940;-54
2023/03/06 10:35:27;;;;;;;6.60;4.57;;;;;;;;;;5015534;28;20438;-53
2023/03/06 10:37:57;;;;;;;8.40;4.90;;;;;;;;;;5037514;28;20939;-53
2023/03/06 10:40:24;;;;;;;6.13;4.10;;;;;;;;;;5015555;28;20452;-53
2023/03/06 10:42:50;;;;;;;7.07;4.60;;;;;;;;;;5034027;28;20446;-53
2023/03/06 10:45:16;;;;;;;7.07;4.77;;;;;;;;;;5001610;28;20479;-53
2023/03/06 10:47:43;;;;;;;6.63;4.87;;;;;;;;;;5038905;28;20948;-54
2023/03/06 10:50:20;;;;;;;6.77;5.13;;;;;;;;;;5018476;28;22968;-53
2023/03/06 10:52:46;;;;;;;10.77;5.53;;;;;;;;;;5043407;28;22533;-53
2023/03/06 10:55:23;;;;;;;9.97;4.93;;;;;;;;;;5030813;28;20443;-54
2023/03/06 10:57:49;;;;;;;7.83;4.53;;;;;;;;;;5040401;28;20219;-54
2023/03/06 11:00:25;;;;;;;5.90;4.00;;;;;;;;;;5011407;28;20514;-53
2023/03/06 11:03:13;;;;;;;5.17;3.70;;;;;;;;;;5036986;28;20572;-55
2023/03/06 11:05:39;;;;;;;9.37;5.37;;;;;;;;;;5012249;28;20478;-54
2023/03/06 11:08:08;;;;;;;10.07;5.50;;;;;;;;;;5031806;28;20439;-56
2023/03/06 11:10:34;;;;;;;7.80;5.03;;;;;;;;;;5019357;28;20439;-54
2023/03/06 11:13:01;;;;;;;6.30;4.13;;;;;;;;;;5028463;28;20461;-54
2023/03/06 11:15:28;;;;;;;7.93;4.57;;;;;;;;;;4997040;28;20446;-53
2023/03/06 11:17:56;;;;;;;7.77;4.97;;;;;;;;;;5035288;28;20439;-54
2023/03/06 11:20:22;;;;;;;5.53;4.30;;;;;;;;;;5036797;28;20476;-52
2023/03/06 11:22:49;;;;;;;6.70;4.20;;;;;;;;;;5038715;28;20460;-54
2023/03/06 11:25:16;;;;;;;7.07;4.50;;;;;;;;;;5023227;28;20483;-54
2023/03/06 11:27:43;;;;;;;7.17;3.90;;;;;;;;;;5037651;28;20474;-53
2023/03/06 11:30:14;;;;;;;8.60;4.73;;;;;;;;;;5027657;28;21011;-53
2023/03/06 11:32:49;;;;;;;7.57;5.67;;;;;;;;;;5059447;28;20445;-53
2023/03/06 11:35:16;;;;;;;6.17;4.93;;;;;;;;;;5044140;28;20437;-53
2023/03/06 11:37:43;;;;;;;10.67;5.93;;;;;;;;;;5033590;28;20439;-54
2023/03/06 11:40:18;;;;;;;10.63;5.63;;;;;;;;;;5032638;28;20458;-53
2023/03/06 11:42:49;;;;;;;6.03;5.20;;;;;;;;;;5046249;28;20446;-53
2023/03/06 11:45:21;;;;;;;6.93;4.60;;;;;;;;;;5043733;28;20593;-52
2023/03/06 11:48:01;;;;;;;7.30;4.63;;;;;;;;;;5037182;28;20429;-52
2023/03/06 11:50:37;;;;;;;9.50;6.20;;;;;;;;;;5015355;28;20443;-54
2023/03/06 11:53:04;;;;;;;9.93;5.33;;;;;;;;;;5056384;28;21393;-51
2023/03/06 11:55:33;;;;;;;7.60;4.73;;;;;;;;;;5052497;28;20459;-58
2023/03/06 11:58:11;;;;;;;8.70;6.00;;;;;;;;;;5038502;28;20520;-53
2023/03/06 12:00:40;;;;;;;7.90;5.30;;;;;;;;;;5006058;28;20521;-54
2023/03/06 12:03:25;;;;;;;11.50;5.70;;;;;;;;;;5036514;28;20472;-57
2023/03/06 12:05:53;;;;;;;6.33;4.97;;;;;;;;;;5033466;28;20481;-53
2023/03/06 12:08:22;;;;;;;8.90;5.27;;;;;;;;;;5052200;28;20480;-52
2023/03/06 12:10:49;;;;;;;7.70;5.43;;;;;;;;;;5009845;28;20458;-54
2023/03/06 12:13:27;;;;;;;8.77;5.47;;;;;;;;;;5054618;28;20915;-53
2023/03/06 12:16:12;;;;;;;7.63;5.23;;;;;;;;;;5012631;28;20446;-53
2023/03/06 12:18:42;;;;;;;9.03;4.80;;;;;;;;;;5028503;28;20465;-55
2023/03/06 12:21:14;;;;;;;6.70;5.27;;;;;;;;;;4997985;28;20450;-53
2023/03/06 12:23:43;;;;;;;7.67;4.73;;;;;;;;;;5031221;28;20450;-55
2023/03/06 12:26:22;;;;;;;7.13;4.47;;;;;;;;;;5027819;28;20493;-53
2023/03/06 12:29:07;;;;;;;6.03;4.97;;;;;;;;;;5027028;28;20441;-52
2023/03/06 12:31:33;;;;;;;11.27;5.40;;;;;;;;;;5043792;28;20521;-52
2023/03/06 12:34:18;;;;;;;11.80;5.40;;;;;;;;;;5032155;28;20518;-53
2023/03/06 12:37:02;;;;;;;6.97;4.10;;;;;;;;;;5037526;28;20442;-55
2023/03/06 12:39:35;;;;;;;7.60;5.03;;;;;;;;;;5000915;28;20441;-53
2023/03/06 12:42:01;;;;;;;10.00;5.17;;;;;;;;;;5051481;28;20453;-53
2023/03/06 12:44:46;;;;;;;5.50;4.17;;;;;;;;;;5036541;28;20454;-54
2023/03/06 12:47:13;;;;;;;9.37;4.73;;;;;;;;;;5039376;28;20495;-53
2023/03/06 12:49:41;;;;;;;6.70;4.47;;;;;;;;;;5029815;28;20495;-54
2023/03/06 12:52:07;;;;;;;6.80;4.60;;;;;;;;;;4981519;28;20907;-57
2023/03/06 12:54:37;;;;;;;8.30;4.90;;;;;;;;;;5003303;28;20545;-54
2023/03/06 12:57:03;;;;;;;7.67;5.07;;;;;;;;;;5034619;28;20426;-54
2023/03/06 12:59:46;;;;;;;6.77;4.50;;;;;;;;;;5038440;28;20442;-54
2023/03/06 13:02:31;;;;;;;8.77;5.60;;;;;;;;;;5038052;28;20805;-55
2023/03/06 13:05:19;;;;;;;7.53;4.90;;;;;;;;;;5011735;28;20469;-52
2023/03/06 13:08:00;;;;;;;7.83;4.70;;;;;;;;;;5021099;28;20481;-54
2023/03/06 13:10:33;;;;;;;6.37;4.60;;;;;;;;;;4987793;28;20446;-53
2023/03/06 13:13:00;;;;;;;8.03;5.00;;;;;;;;;;4980949;28;20967;-53
2023/03/06 13:15:30;;;;;;;6.27;4.57;;;;;;;;;;4979620;28;21438;-54
2023/03/06 13:17:56;;;;;;;6.13;4.40;;;;;;;;;;5013501;28;21230;-53
2023/03/06 13:20:27;;;;;;;6.10;3.87;;;;;;;;;;5023745;28;20592;-53
2023/03/06 13:22:53;;;;;;;7.77;4.37;;;;;;;;;;5002233;28;20993;-53
2023/03/06 13:25:31;;;;;;;7.40;5.20;;;;;;;;;;5015825;28;20727;-53
2023/03/06 13:28:02;;;;;;;6.80;4.43;;;;;;;;;;4951237;28;20517;-54
2023/03/06 13:30:28;;;;;;;7.37;4.63;;;;;;;;;;4989053;28;21377;-54
2023/03/06 13:32:54;;;;;;;7.20;4.43;;;;;;;;;;4999998;28;20500;-54
2023/03/06 13:35:29;;;;;;;5.63;4.13;;;;;;;;;;5038589;28;20434;-53
2023/03/06 13:37:55;;;;;;;10.93;5.70;;;;;;;;;;5014604;28;20465;-52
2023/03/06 13:40:25;;;;;;;8.00;3.83;;;;;;;;;;5030822;28;20560;-53
2023/03/06 13:43:17;;;;;;;8.80;4.73;;;;;;;;;;5017686;28;20595;-56
2023/03/06 13:45:43;;;;;;;8.07;4.80;;;;;;;;;;5030090;28;20479;-53
2023/03/06 13:48:22;;;;;;;5.13;3.30;;;;;;;;;;5016498;28;20465;-54
2023/03/06 13:50:48;;;;;;;6.73;4.70;;;;;;;;;;5034610;28;21157;-54
2023/03/06 13:53:17;;;;;;;4.47;3.73;;;;;;;;;;5028652;28;20450;-54
2023/03/06 13:55:51;;;;;;;6.63;4.47;;;;;;;;;;5036627;28;20502;-53
2023/03/06 13:58:26;;;;;;;4.90;3.97;;;;;;;;;;5003896;28;20430;-52
2023/03/06 14:00:59;;;;;;;7.83;4.10;;;;;;;;;;5030608;28;20437;-54
2023/03/06 14:04:03;;;;;;;6.53;3.73;;;;;;;;;;5013811;28;20443;-54
2023/03/06 14:06:36;;;;;;;8.93;5.33;;;;;;;;;;4966132;28;21259;-53
2023/03/06 14:09:05;;;;;;;6.17;5.10;;;;;;;;;;4996636;28;20450;-52
2023/03/06 14:11:31;;;;;;;4.30;3.57;;;;;;;;;;4978257;28;20564;-53
2023/03/06 14:13:57;;;;;;;5.80;3.43;;;;;;;;;;5027534;28;20430;-53
2023/03/06 14:16:35;;;;;;;7.50;4.77;;;;;;;;;;5013136;28;21155;-54
2023/03/06 14:19:01;;;;;;;7.23;4.57;;;;;;;;;;5000404;28;20718;-53
2023/03/06 14:21:29;;;;;;;8.30;5.53;;;;;;;;;;5039711;28;20952;-53
2023/03/06 14:24:01;;;;;;;6.90;4.60;;;;;;;;;;4988103;28;20542;-52
2023/03/06 14:26:27;;;;;;;10.57;4.87;;;;;;;;;;5023558;28;21075;-52
2023/03/06 14:29:00;;;;;;;6.90;4.70;;;;;;;;;;4993887;28;20440;-52
2023/03/06 14:31:30;;;;;;;6.67;4.60;;;;;;;;;;5035574;28;20454;-52
2023/03/06 14:33:56;;;;;;;6.37;3.83;;;;;;;;;;5016993;28;20500;-51
2023/03/06 14:36:23;;;;;;;7.03;4.40;;;;;;;;;;5030972;28;20439;-51
2023/03/06 14:39:07;;;;;;;6.87;4.73;;;;;;;;;;5000345;28;20481;-53
2023/03/06 14:41:34;;;;;;;5.60;3.90;;;;;;;;;;5032368;28;20530;-52
2023/03/06 14:44:07;;;;;;;8.40;4.20;;;;;;;;;;5001121;28;20450;-51
2023/03/06 14:46:33;;;;;;;7.27;5.40;;;;;;;;;;5032946;28;20470;-52